sensor_id;sensor_type;location;lat;lon;timestamp;temperature;humidity
19561;DHT22;9927;47.792;10.616;2023-06-14T00:02:21;9.90;95.90
19561;DHT22;9927;47.792;10.616;2023-06-14T00:04:48;9.80;97.60
19561;DHT22;9927;47.792;10.616;2023-06-14T00:07:22;9.90;97.80
19561;DHT22;9927;47.792;10.616;2023-06-14T00:10:00;9.80;98.40
19561;DHT22;9927;47.792;10.616;2023-06-14T00:12:27;9.80;98.70
19561;DHT22;9927;47.792;10.616;2023-06-14T00:14:54;9.80;99.40
19561;DHT22;9927;47.792;10.616;2023-06-14T00:17:22;9.70;99.20
19561;DHT22;9927;47.792;10.616;2023-06-14T00:19:49;9.70;99.60
19561;DHT22;9927;47.792;10.616;2023-06-14T00:22:17;9.70;99.70
19561;DHT22;9927;47.792;10.616;2023-06-14T00:24:44;9.60;99.90
19561;DHT22;9927;47.792;10.616;2023-06-14T00:27:11;9.50;99.90
19561;DHT22;9927;47.792;10.616;2023-06-14T00:29:39;9.40;99.90
19561;DHT22;9927;47.792;10.616;2023-06-14T00:32:06;9.30;99.90
19561;DHT22;9927;47.792;10.616;2023-06-14T00:34:34;9.30;99.90
19561;DHT22;9927;47.792;10.616;2023-06-14T00:37:01;9.20;99.90
19561;DHT22;9927;47.792;10.616;2023-06-14T00:39:29;9.20;99.90
19561;DHT22;9927;47.792;10.616;2023-06-14T00:41:56;9.20;99.90
19561;DHT22;9927;47.792;10.616;2023-06-14T00:44:24;9.10;99.90
19561;DHT22;9927;47.792;10.616;2023-06-14T00:46:52;9.00;99.90
19561;DHT22;9927;47.792;10.616;2023-06-14T00:49:19;8.90;99.90
19561;DHT22;9927;47.792;10.616;2023-06-14T00:51:47;8.70;99.90
19561;DHT22;9927;47.792;10.616;2023-06-14T00:54:14;8.70;99.90
19561;DHT22;9927;47.792;10.616;2023-06-14T00:56:42;8.70;99.90
19561;DHT22;9927;47.792;10.616;2023-06-14T00:59:10;8.80;99.90
19561;DHT22;9927;47.792;10.616;2023-06-14T01:01:38;8.80;99.90
19561;DHT22;9927;47.792;10.616;2023-06-14T01:04:05;8.90;99.90
19561;DHT22;9927;47.792;10.616;2023-06-14T01:12:30;8.80;99.90
19561;DHT22;9927;47.792;10.616;2023-06-14T01:14:59;8.50;99.90
19561;DHT22;9927;47.792;10.616;2023-06-14T01:17:28;8.50;99.90
19561;DHT22;9927;47.792;10.616;2023-06-14T01:20:01;8.50;99.90
19561;DHT22;9927;47.792;10.616;2023-06-14T01:22:29;8.30;99.90
19561;DHT22;9927;47.792;10.616;2023-06-14T01:24:57;8.00;99.90
19561;DHT22;9927;47.792;10.616;2023-06-14T01:27:26;7.90;99.90
19561;DHT22;9927;47.792;10.616;2023-06-14T01:29:56;7.80;99.90
19561;DHT22;9927;47.792;10.616;2023-06-14T01:32:26;7.80;99.90
19561;DHT22;9927;47.792;10.616;2023-06-14T01:34:54;7.90;99.90
19561;DHT22;9927;47.792;10.616;2023-06-14T01:37:21;7.90;99.90
19561;DHT22;9927;47.792;10.616;2023-06-14T01:39:50;7.90;99.90
19561;DHT22;9927;47.792;10.616;2023-06-14T01:42:18;8.00;99.90
19561;DHT22;9927;47.792;10.616;2023-06-14T01:44:46;8.00;99.90
19561;DHT22;9927;47.792;10.616;2023-06-14T01:47:14;8.10;99.90
19561;DHT22;9927;47.792;10.616;2023-06-14T01:49:42;8.10;99.90
19561;DHT22;9927;47.792;10.616;2023-06-14T01:52:09;8.20;99.90
19561;DHT22;9927;47.792;10.616;2023-06-14T01:54:37;8.20;99.90
19561;DHT22;9927;47.792;10.616;2023-06-14T01:57:09;8.10;99.90
19561;DHT22;9927;47.792;10.616;2023-06-14T01:59:37;8.10;99.90
19561;DHT22;9927;47.792;10.616;2023-06-14T02:02:05;8.00;99.90
19561;DHT22;9927;47.792;10.616;2023-06-14T02:04:32;7.70;99.90
19561;DHT22;9927;47.792;10.616;2023-06-14T02:06:59;7.60;99.90
19561;DHT22;9927;47.792;10.616;2023-06-14T02:09:27;7.60;99.90
19561;DHT22;9927;47.792;10.616;2023-06-14T02:11:54;7.60;99.90
19561;DHT22;9927;47.792;10.616;2023-06-14T02:14:21;7.50;99.90
19561;DHT22;9927;47.792;10.616;2023-06-14T02:16:49;7.50;99.90
19561;DHT22;9927;47.792;10.616;2023-06-14T02:19:16;7.50;99.90
19561;DHT22;9927;47.792;10.616;2023-06-14T02:21:45;7.30;99.90
19561;DHT22;9927;47.792;10.616;2023-06-14T02:24:12;7.20;99.90
19561;DHT22;9927;47.792;10.616;2023-06-14T02:26:40;7.20;99.90
19561;DHT22;9927;47.792;10.616;2023-06-14T02:29:10;7.20;99.90
19561;DHT22;9927;47.792;10.616;2023-06-14T02:31:40;7.30;99.90
19561;DHT22;9927;47.792;10.616;2023-06-14T02:34:08;7.30;99.90
19561;DHT22;9927;47.792;10.616;2023-06-14T02:36:35;7.30;99.90
19561;DHT22;9927;47.792;10.616;2023-06-14T02:39:09;7.20;99.90
19561;DHT22;9927;47.792;10.616;2023-06-14T02:41:36;7.20;99.90
19561;DHT22;9927;47.792;10.616;2023-06-14T02:44:04;7.20;99.90
19561;DHT22;9927;47.792;10.616;2023-06-14T02:46:32;7.30;99.90
19561;DHT22;9927;47.792;10.616;2023-06-14T02:48:59;7.20;99.90
19561;DHT22;9927;47.792;10.616;2023-06-14T02:51:27;7.30;99.90
19561;DHT22;9927;47.792;10.616;2023-06-14T02:53:54;7.30;99.90
19561;DHT22;9927;47.792;10.616;2023-06-14T02:56:22;7.30;99.90
19561;DHT22;9927;47.792;10.616;2023-06-14T02:58:49;7.20;99.90
19561;DHT22;9927;47.792;10.616;2023-06-14T03:01:17;7.00;99.90
19561;DHT22;9927;47.792;10.616;2023-06-14T03:03:45;6.90;99.90
19561;DHT22;9927;47.792;10.616;2023-06-14T03:06:12;6.80;99.90
19561;DHT22;9927;47.792;10.616;2023-06-14T03:08:40;6.90;99.90
19561;DHT22;9927;47.792;10.616;2023-06-14T03:11:08;6.90;99.90
19561;DHT22;9927;47.792;10.616;2023-06-14T03:13:36;6.90;99.90
19561;DHT22;9927;47.792;10.616;2023-06-14T03:16:04;6.90;99.90
19561;DHT22;9927;47.792;10.616;2023-06-14T03:18:31;6.90;99.90
19561;DHT22;9927;47.792;10.616;2023-06-14T03:21:02;6.90;99.90
19561;DHT22;9927;47.792;10.616;2023-06-14T03:23:30;6.80;99.90
19561;DHT22;9927;47.792;10.616;2023-06-14T03:25:58;6.90;99.90
19561;DHT22;9927;47.792;10.616;2023-06-14T03:28:25;6.90;99.90
19561;DHT22;9927;47.792;10.616;2023-06-14T03:30:53;6.90;99.90
19561;DHT22;9927;47.792;10.616;2023-06-14T03:33:20;7.00;99.90
19561;DHT22;9927;47.792;10.616;2023-06-14T03:35:48;6.90;99.90
19561;DHT22;9927;47.792;10.616;2023-06-14T03:38:15;7.00;99.90
19561;DHT22;9927;47.792;10.616;2023-06-14T03:40:42;7.00;99.90
19561;DHT22;9927;47.792;10.616;2023-06-14T03:43:09;7.10;99.90
19561;DHT22;9927;47.792;10.616;2023-06-14T03:45:37;7.20;99.90
19561;DHT22;9927;47.792;10.616;2023-06-14T03:48:04;7.30;99.90
19561;DHT22;9927;47.792;10.616;2023-06-14T03:50:34;7.30;99.90
19561;DHT22;9927;47.792;10.616;2023-06-14T03:53:01;7.00;99.90
19561;DHT22;9927;47.792;10.616;2023-06-14T03:55:28;7.00;99.90
19561;DHT22;9927;47.792;10.616;2023-06-14T03:58:01;6.90;99.90
19561;DHT22;9927;47.792;10.616;2023-06-14T04:00:28;6.90;99.90
19561;DHT22;9927;47.792;10.616;2023-06-14T04:02:55;7.00;99.90
19561;DHT22;9927;47.792;10.616;2023-06-14T04:05:23;7.00;99.90
19561;DHT22;9927;47.792;10.616;2023-06-14T04:07:53;7.00;99.90
19561;DHT22;9927;47.792;10.616;2023-06-14T04:10:22;7.10;99.90
19561;DHT22;9927;47.792;10.616;2023-06-14T04:12:50;7.40;99.90
19561;DHT22;9927;47.792;10.616;2023-06-14T04:15:18;7.40;99.90
19561;DHT22;9927;47.792;10.616;2023-06-14T04:17:51;7.50;99.90
19561;DHT22;9927;47.792;10.616;2023-06-14T04:20:18;7.40;99.90
19561;DHT22;9927;47.792;10.616;2023-06-14T04:25:14;7.40;99.90
19561;DHT22;9927;47.792;10.616;2023-06-14T04:27:42;7.50;99.90
19561;DHT22;9927;47.792;10.616;2023-06-14T04:30:09;7.70;99.90
19561;DHT22;9927;47.792;10.616;2023-06-14T04:32:37;7.90;99.90
19561;DHT22;9927;47.792;10.616;2023-06-14T04:35:07;8.00;99.90
19561;DHT22;9927;47.792;10.616;2023-06-14T04:37:35;8.20;99.90
19561;DHT22;9927;47.792;10.616;2023-06-14T04:40:07;8.20;99.90
19561;DHT22;9927;47.792;10.616;2023-06-14T04:42:38;8.20;99.90
19561;DHT22;9927;47.792;10.616;2023-06-14T04:45:08;8.40;99.90
19561;DHT22;9927;47.792;10.616;2023-06-14T04:47:38;8.60;99.90
19561;DHT22;9927;47.792;10.616;2023-06-14T04:50:06;8.80;99.90
19561;DHT22;9927;47.792;10.616;2023-06-14T04:52:33;8.90;99.90
19561;DHT22;9927;47.792;10.616;2023-06-14T04:55:03;9.10;99.90
19561;DHT22;9927;47.792;10.616;2023-06-14T04:57:31;9.20;99.90
19561;DHT22;9927;47.792;10.616;2023-06-14T04:59:58;9.30;99.90
19561;DHT22;9927;47.792;10.616;2023-06-14T05:02:28;9.40;99.90
19561;DHT22;9927;47.792;10.616;2023-06-14T05:04:57;9.50;99.90
19561;DHT22;9927;47.792;10.616;2023-06-14T05:07:26;9.60;99.90
19561;DHT22;9927;47.792;10.616;2023-06-14T05:09:53;9.90;99.90
19561;DHT22;9927;47.792;10.616;2023-06-14T05:12:20;10.00;99.90
19561;DHT22;9927;47.792;10.616;2023-06-14T05:14:48;10.10;99.90
19561;DHT22;9927;47.792;10.616;2023-06-14T05:17:15;10.30;99.90
19561;DHT22;9927;47.792;10.616;2023-06-14T05:19:43;10.50;99.90
19561;DHT22;9927;47.792;10.616;2023-06-14T05:22:11;10.60;99.90
19561;DHT22;9927;47.792;10.616;2023-06-14T05:24:38;10.80;99.90
19561;DHT22;9927;47.792;10.616;2023-06-14T05:27:06;10.90;99.90
19561;DHT22;9927;47.792;10.616;2023-06-14T05:29:34;11.00;99.90
19561;DHT22;9927;47.792;10.616;2023-06-14T05:32:01;11.20;99.90
19561;DHT22;9927;47.792;10.616;2023-06-14T05:34:29;11.50;99.90
19561;DHT22;9927;47.792;10.616;2023-06-14T05:36:56;11.70;99.90
19561;DHT22;9927;47.792;10.616;2023-06-14T05:39:23;12.60;99.90
19561;DHT22;9927;47.792;10.616;2023-06-14T05:41:51;13.50;99.90
19561;DHT22;9927;47.792;10.616;2023-06-14T05:44:18;14.40;99.90
19561;DHT22;9927;47.792;10.616;2023-06-14T05:46:45;15.50;99.90
19561;DHT22;9927;47.792;10.616;2023-06-14T05:49:13;15.80;99.90
19561;DHT22;9927;47.792;10.616;2023-06-14T05:51:40;15.70;99.80
19561;DHT22;9927;47.792;10.616;2023-06-14T05:54:07;16.50;99.90
19561;DHT22;9927;47.792;10.616;2023-06-14T05:56:35;17.80;99.40
19561;DHT22;9927;47.792;10.616;2023-06-14T05:59:03;18.20;97.30
19561;DHT22;9927;47.792;10.616;2023-06-14T06:01:30;19.00;94.00
19561;DHT22;9927;47.792;10.616;2023-06-14T06:03:57;19.50;92.00
19561;DHT22;9927;47.792;10.616;2023-06-14T06:06:25;20.00;90.30
19561;DHT22;9927;47.792;10.616;2023-06-14T06:08:52;21.20;84.80
19561;DHT22;9927;47.792;10.616;2023-06-14T06:11:19;22.20;78.00
19561;DHT22;9927;47.792;10.616;2023-06-14T06:13:47;22.40;73.40
19561;DHT22;9927;47.792;10.616;2023-06-14T06:16:14;21.60;76.90
19561;DHT22;9927;47.792;10.616;2023-06-14T06:18:42;22.20;74.30
19561;DHT22;9927;47.792;10.616;2023-06-14T06:21:11;20.40;78.20
19561;DHT22;9927;47.792;10.616;2023-06-14T06:23:38;20.50;78.60
19561;DHT22;9927;47.792;10.616;2023-06-14T06:26:06;20.80;81.40
19561;DHT22;9927;47.792;10.616;2023-06-14T06:28:34;21.20;77.70
19561;DHT22;9927;47.792;10.616;2023-06-14T06:31:01;22.80;72.40
19561;DHT22;9927;47.792;10.616;2023-06-14T06:33:31;24.20;67.90
19561;DHT22;9927;47.792;10.616;2023-06-14T06:35:58;24.60;65.00
19561;DHT22;9927;47.792;10.616;2023-06-14T06:38:25;24.50;66.20
19561;DHT22;9927;47.792;10.616;2023-06-14T06:40:52;25.00;64.50
19561;DHT22;9927;47.792;10.616;2023-06-14T06:43:21;25.10;60.00
19561;DHT22;9927;47.792;10.616;2023-06-14T06:45:48;25.00;61.90
19561;DHT22;9927;47.792;10.616;2023-06-14T06:48:15;25.10;61.50
19561;DHT22;9927;47.792;10.616;2023-06-14T06:50:44;25.20;60.30
19561;DHT22;9927;47.792;10.616;2023-06-14T06:53:11;25.50;62.10
19561;DHT22;9927;47.792;10.616;2023-06-14T06:55:42;26.30;58.70
19561;DHT22;9927;47.792;10.616;2023-06-14T06:58:09;26.50;58.20
19561;DHT22;9927;47.792;10.616;2023-06-14T07:00:37;26.90;57.80
19561;DHT22;9927;47.792;10.616;2023-06-14T07:03:05;26.60;56.30
19561;DHT22;9927;47.792;10.616;2023-06-14T07:05:32;26.80;57.00
19561;DHT22;9927;47.792;10.616;2023-06-14T07:08:00;27.70;53.80
19561;DHT22;9927;47.792;10.616;2023-06-14T07:10:27;27.80;54.40
19561;DHT22;9927;47.792;10.616;2023-06-14T07:12:54;27.50;55.80
19561;DHT22;9927;47.792;10.616;2023-06-14T07:15:22;27.50;56.60
19561;DHT22;9927;47.792;10.616;2023-06-14T07:17:49;28.10;54.00
19561;DHT22;9927;47.792;10.616;2023-06-14T07:20:17;28.30;54.50
19561;DHT22;9927;47.792;10.616;2023-06-14T07:22:45;28.50;54.00
19561;DHT22;9927;47.792;10.616;2023-06-14T07:25:12;28.50;53.40
19561;DHT22;9927;47.792;10.616;2023-06-14T07:27:46;28.10;50.60
19561;DHT22;9927;47.792;10.616;2023-06-14T07:30:13;27.70;50.30
19561;DHT22;9927;47.792;10.616;2023-06-14T07:32:40;27.90;49.40
19561;DHT22;9927;47.792;10.616;2023-06-14T07:35:08;28.50;48.90
19561;DHT22;9927;47.792;10.616;2023-06-14T07:37:35;27.60;47.20
19561;DHT22;9927;47.792;10.616;2023-06-14T07:40:03;27.30;45.60
19561;DHT22;9927;47.792;10.616;2023-06-14T07:42:34;28.40;44.10
19561;DHT22;9927;47.792;10.616;2023-06-14T07:45:06;29.30;41.70
19561;DHT22;9927;47.792;10.616;2023-06-14T07:47:33;29.50;41.20
19561;DHT22;9927;47.792;10.616;2023-06-14T07:50:01;28.90;39.80
19561;DHT22;9927;47.792;10.616;2023-06-14T07:52:28;28.40;41.60
19561;DHT22;9927;47.792;10.616;2023-06-14T07:54:56;28.40;41.70
19561;DHT22;9927;47.792;10.616;2023-06-14T07:57:23;28.40;40.90
19561;DHT22;9927;47.792;10.616;2023-06-14T07:59:51;28.40;42.10
19561;DHT22;9927;47.792;10.616;2023-06-14T08:02:18;28.20;43.30
19561;DHT22;9927;47.792;10.616;2023-06-14T08:04:45;28.10;41.30
19561;DHT22;9927;47.792;10.616;2023-06-14T08:07:15;27.90;43.40
19561;DHT22;9927;47.792;10.616;2023-06-14T08:09:42;28.20;42.80
19561;DHT22;9927;47.792;10.616;2023-06-14T08:12:09;28.60;42.30
19561;DHT22;9927;47.792;10.616;2023-06-14T08:14:39;28.70;42.10
19561;DHT22;9927;47.792;10.616;2023-06-14T08:17:07;28.80;39.50
19561;DHT22;9927;47.792;10.616;2023-06-14T08:19:34;28.40;41.50
19561;DHT22;9927;47.792;10.616;2023-06-14T08:22:01;28.40;41.60
19561;DHT22;9927;47.792;10.616;2023-06-14T08:24:29;28.90;41.90
19561;DHT22;9927;47.792;10.616;2023-06-14T08:26:57;29.20;40.70
19561;DHT22;9927;47.792;10.616;2023-06-14T08:29:24;29.40;41.50
19561;DHT22;9927;47.792;10.616;2023-06-14T08:31:52;29.00;40.60
19561;DHT22;9927;47.792;10.616;2023-06-14T08:34:19;28.90;42.00
19561;DHT22;9927;47.792;10.616;2023-06-14T08:36:46;29.60;41.40
19561;DHT22;9927;47.792;10.616;2023-06-14T08:39:14;29.80;40.50
19561;DHT22;9927;47.792;10.616;2023-06-14T08:41:43;29.70;40.20
19561;DHT22;9927;47.792;10.616;2023-06-14T08:44:12;28.90;41.20
19561;DHT22;9927;47.792;10.616;2023-06-14T08:46:40;28.30;41.60
19561;DHT22;9927;47.792;10.616;2023-06-14T08:49:11;28.30;40.30
19561;DHT22;9927;47.792;10.616;2023-06-14T08:51:38;28.10;41.90
19561;DHT22;9927;47.792;10.616;2023-06-14T08:54:07;27.90;41.40
19561;DHT22;9927;47.792;10.616;2023-06-14T08:56:37;27.80;41.70
19561;DHT22;9927;47.792;10.616;2023-06-14T08:59:06;27.50;41.30
19561;DHT22;9927;47.792;10.616;2023-06-14T09:01:34;27.50;41.00
19561;DHT22;9927;47.792;10.616;2023-06-14T09:04:02;27.10;43.10
19561;DHT22;9927;47.792;10.616;2023-06-14T09:06:32;26.50;42.80
19561;DHT22;9927;47.792;10.616;2023-06-14T09:09:00;26.50;44.60
19561;DHT22;9927;47.792;10.616;2023-06-14T09:11:28;26.40;44.70
19561;DHT22;9927;47.792;10.616;2023-06-14T09:13:55;27.00;42.80
19561;DHT22;9927;47.792;10.616;2023-06-14T09:16:25;26.90;43.70
19561;DHT22;9927;47.792;10.616;2023-06-14T09:18:53;27.00;44.30
19561;DHT22;9927;47.792;10.616;2023-06-14T09:21:21;26.30;44.30
19561;DHT22;9927;47.792;10.616;2023-06-14T09:23:48;25.70;44.60
19561;DHT22;9927;47.792;10.616;2023-06-14T09:26:19;25.30;44.90
19561;DHT22;9927;47.792;10.616;2023-06-14T09:28:50;25.30;46.50
19561;DHT22;9927;47.792;10.616;2023-06-14T09:31:19;24.70;45.10
19561;DHT22;9927;47.792;10.616;2023-06-14T09:33:49;24.50;45.40
19561;DHT22;9927;47.792;10.616;2023-06-14T09:36:26;24.60;46.00
19561;DHT22;9927;47.792;10.616;2023-06-14T09:38:59;24.70;46.40
19561;DHT22;9927;47.792;10.616;2023-06-14T09:41:34;24.90;45.70
19561;DHT22;9927;47.792;10.616;2023-06-14T09:44:04;24.00;45.70
19561;DHT22;9927;47.792;10.616;2023-06-14T09:46:37;24.00;46.90
19561;DHT22;9927;47.792;10.616;2023-06-14T09:49:05;24.40;46.40
19561;DHT22;9927;47.792;10.616;2023-06-14T09:51:33;24.40;45.40
19561;DHT22;9927;47.792;10.616;2023-06-14T09:54:03;24.30;45.90
19561;DHT22;9927;47.792;10.616;2023-06-14T09:56:44;24.40;47.50
19561;DHT22;9927;47.792;10.616;2023-06-14T09:59:13;24.40;46.60
19561;DHT22;9927;47.792;10.616;2023-06-14T10:01:43;24.40;46.70
19561;DHT22;9927;47.792;10.616;2023-06-14T10:04:12;24.40;46.80
19561;DHT22;9927;47.792;10.616;2023-06-14T10:06:43;24.40;47.50
19561;DHT22;9927;47.792;10.616;2023-06-14T10:09:12;24.50;49.10
19561;DHT22;9927;47.792;10.616;2023-06-14T10:11:41;24.40;47.80
19561;DHT22;9927;47.792;10.616;2023-06-14T10:14:12;24.50;46.50
19561;DHT22;9927;47.792;10.616;2023-06-14T10:16:57;24.50;46.90
19561;DHT22;9927;47.792;10.616;2023-06-14T10:19:31;24.30;47.30
19561;DHT22;9927;47.792;10.616;2023-06-14T10:22:08;24.30;47.00
19561;DHT22;9927;47.792;10.616;2023-06-14T10:24:44;24.20;47.40
19561;DHT22;9927;47.792;10.616;2023-06-14T10:27:15;24.10;48.20
19561;DHT22;9927;47.792;10.616;2023-06-14T10:32:24;24.00;49.50
19561;DHT22;9927;47.792;10.616;2023-06-14T10:35:00;23.70;46.30
19561;DHT22;9927;47.792;10.616;2023-06-14T10:37:28;23.70;48.60
19561;DHT22;9927;47.792;10.616;2023-06-14T10:39:55;23.70;48.60
19561;DHT22;9927;47.792;10.616;2023-06-14T10:42:28;23.70;49.00
19561;DHT22;9927;47.792;10.616;2023-06-14T10:44:58;23.70;49.30
19561;DHT22;9927;47.792;10.616;2023-06-14T10:47:33;23.40;48.60
19561;DHT22;9927;47.792;10.616;2023-06-14T10:52:34;23.50;48.90
19561;DHT22;9927;47.792;10.616;2023-06-14T10:57:34;23.60;48.60
19561;DHT22;9927;47.792;10.616;2023-06-14T11:00:20;23.80;50.20
19561;DHT22;9927;47.792;10.616;2023-06-14T11:03:28;23.80;49.10
19561;DHT22;9927;47.792;10.616;2023-06-14T11:05:58;23.80;50.10
19561;DHT22;9927;47.792;10.616;2023-06-14T11:08:40;23.80;49.90
19561;DHT22;9927;47.792;10.616;2023-06-14T11:11:13;23.80;49.90
19561;DHT22;9927;47.792;10.616;2023-06-14T11:13:46;23.80;50.60
19561;DHT22;9927;47.792;10.616;2023-06-14T11:16:15;23.90;50.50
19561;DHT22;9927;47.792;10.616;2023-06-14T11:18:44;23.90;50.40
19561;DHT22;9927;47.792;10.616;2023-06-14T11:21:16;23.80;49.00
19561;DHT22;9927;47.792;10.616;2023-06-14T11:23:52;23.80;48.50
19561;DHT22;9927;47.792;10.616;2023-06-14T11:26:30;23.70;48.60
19561;DHT22;9927;47.792;10.616;2023-06-14T11:28:58;23.60;49.60
19561;DHT22;9927;47.792;10.616;2023-06-14T11:31:27;23.80;51.00
19561;DHT22;9927;47.792;10.616;2023-06-14T11:33:58;23.90;49.60
19561;DHT22;9927;47.792;10.616;2023-06-14T11:36:29;23.80;50.80
19561;DHT22;9927;47.792;10.616;2023-06-14T11:39:02;23.90;52.50
19561;DHT22;9927;47.792;10.616;2023-06-14T11:41:41;24.00;52.20
19561;DHT22;9927;47.792;10.616;2023-06-14T11:44:09;23.80;49.60
19561;DHT22;9927;47.792;10.616;2023-06-14T11:46:37;23.80;49.60
19561;DHT22;9927;47.792;10.616;2023-06-14T11:49:07;23.70;49.10
19561;DHT22;9927;47.792;10.616;2023-06-14T11:51:35;23.80;50.50
19561;DHT22;9927;47.792;10.616;2023-06-14T11:54:04;23.70;48.60
19561;DHT22;9927;47.792;10.616;2023-06-14T11:56:32;23.70;48.90
19561;DHT22;9927;47.792;10.616;2023-06-14T11:59:00;23.80;48.90
19561;DHT22;9927;47.792;10.616;2023-06-14T12:01:35;23.90;48.20
19561;DHT22;9927;47.792;10.616;2023-06-14T12:04:04;23.90;50.30
19561;DHT22;9927;47.792;10.616;2023-06-14T12:06:31;24.00;51.30
19561;DHT22;9927;47.792;10.616;2023-06-14T12:09:07;23.80;49.20
19561;DHT22;9927;47.792;10.616;2023-06-14T12:11:40;23.80;50.20
19561;DHT22;9927;47.792;10.616;2023-06-14T12:14:08;24.00;48.60
19561;DHT22;9927;47.792;10.616;2023-06-14T12:16:38;23.90;49.50
19561;DHT22;9927;47.792;10.616;2023-06-14T12:19:13;23.90;52.80
19561;DHT22;9927;47.792;10.616;2023-06-14T12:21:41;24.00;51.90
19561;DHT22;9927;47.792;10.616;2023-06-14T12:24:09;24.00;50.30
19561;DHT22;9927;47.792;10.616;2023-06-14T12:26:40;24.00;49.20
19561;DHT22;9927;47.792;10.616;2023-06-14T12:29:08;24.10;48.40
19561;DHT22;9927;47.792;10.616;2023-06-14T12:31:36;24.30;49.00
19561;DHT22;9927;47.792;10.616;2023-06-14T12:34:03;24.40;49.00
19561;DHT22;9927;47.792;10.616;2023-06-14T12:36:30;24.50;49.20
19561;DHT22;9927;47.792;10.616;2023-06-14T12:38:59;24.30;49.20
19561;DHT22;9927;47.792;10.616;2023-06-14T12:41:26;24.20;49.80
19561;DHT22;9927;47.792;10.616;2023-06-14T12:43:54;24.20;48.00
19561;DHT22;9927;47.792;10.616;2023-06-14T12:46:21;24.30;49.20
19561;DHT22;9927;47.792;10.616;2023-06-14T12:48:49;24.20;48.90
19561;DHT22;9927;47.792;10.616;2023-06-14T12:51:16;24.30;50.30
19561;DHT22;9927;47.792;10.616;2023-06-14T12:53:43;24.00;51.00
19561;DHT22;9927;47.792;10.616;2023-06-14T12:56:11;24.00;52.00
19561;DHT22;9927;47.792;10.616;2023-06-14T12:58:38;24.00;51.10
19561;DHT22;9927;47.792;10.616;2023-06-14T13:01:05;24.30;53.70
19561;DHT22;9927;47.792;10.616;2023-06-14T13:03:32;24.10;49.80
19561;DHT22;9927;47.792;10.616;2023-06-14T13:06:02;24.10;49.60
19561;DHT22;9927;47.792;10.616;2023-06-14T13:08:30;23.90;52.70
19561;DHT22;9927;47.792;10.616;2023-06-14T13:10:58;24.10;53.00
19561;DHT22;9927;47.792;10.616;2023-06-14T13:13:25;24.00;49.90
19561;DHT22;9927;47.792;10.616;2023-06-14T13:15:52;24.00;51.60
19561;DHT22;9927;47.792;10.616;2023-06-14T13:18:19;24.30;51.70
19561;DHT22;9927;47.792;10.616;2023-06-14T13:20:47;24.30;51.60
19561;DHT22;9927;47.792;10.616;2023-06-14T13:23:15;24.40;49.60
19561;DHT22;9927;47.792;10.616;2023-06-14T13:25:43;24.30;49.30
19561;DHT22;9927;47.792;10.616;2023-06-14T13:28:11;24.20;51.00
19561;DHT22;9927;47.792;10.616;2023-06-14T13:30:39;24.10;48.90
19561;DHT22;9927;47.792;10.616;2023-06-14T13:33:07;24.30;51.00
19561;DHT22;9927;47.792;10.616;2023-06-14T13:35:35;24.30;51.00
19561;DHT22;9927;47.792;10.616;2023-06-14T13:38:03;24.30;50.60
19561;DHT22;9927;47.792;10.616;2023-06-14T13:40:30;24.50;51.50
19561;DHT22;9927;47.792;10.616;2023-06-14T13:42:57;24.50;50.10
19561;DHT22;9927;47.792;10.616;2023-06-14T13:45:24;24.50;50.70
19561;DHT22;9927;47.792;10.616;2023-06-14T13:47:52;24.70;50.80
19561;DHT22;9927;47.792;10.616;2023-06-14T13:50:19;24.90;50.60
19561;DHT22;9927;47.792;10.616;2023-06-14T13:52:47;25.00;50.50
19561;DHT22;9927;47.792;10.616;2023-06-14T13:55:17;25.00;50.40
19561;DHT22;9927;47.792;10.616;2023-06-14T13:57:44;25.00;49.80
19561;DHT22;9927;47.792;10.616;2023-06-14T14:00:12;24.80;49.20
19561;DHT22;9927;47.792;10.616;2023-06-14T14:02:40;24.70;50.10
19561;DHT22;9927;47.792;10.616;2023-06-14T14:05:08;24.60;47.40
19561;DHT22;9927;47.792;10.616;2023-06-14T14:07:36;24.50;47.60
19561;DHT22;9927;47.792;10.616;2023-06-14T14:10:05;24.60;48.20
19561;DHT22;9927;47.792;10.616;2023-06-14T14:12:36;24.70;49.80
19561;DHT22;9927;47.792;10.616;2023-06-14T14:15:06;24.80;49.20
19561;DHT22;9927;47.792;10.616;2023-06-14T14:17:40;24.90;49.90
19561;DHT22;9927;47.792;10.616;2023-06-14T14:20:09;24.80;47.70
19561;DHT22;9927;47.792;10.616;2023-06-14T14:22:42;24.90;48.70
19561;DHT22;9927;47.792;10.616;2023-06-14T14:25:12;25.00;47.90
19561;DHT22;9927;47.792;10.616;2023-06-14T14:27:40;25.20;47.90
19561;DHT22;9927;47.792;10.616;2023-06-14T14:30:08;25.40;49.00
19561;DHT22;9927;47.792;10.616;2023-06-14T14:32:35;25.30;49.10
19561;DHT22;9927;47.792;10.616;2023-06-14T14:35:03;25.00;51.00
19561;DHT22;9927;47.792;10.616;2023-06-14T14:37:30;25.00;51.40
19561;DHT22;9927;47.792;10.616;2023-06-14T14:39:57;24.80;51.70
19561;DHT22;9927;47.792;10.616;2023-06-14T14:42:25;24.80;51.10
19561;DHT22;9927;47.792;10.616;2023-06-14T14:44:53;24.70;49.50
19561;DHT22;9927;47.792;10.616;2023-06-14T14:47:20;25.00;52.60
19561;DHT22;9927;47.792;10.616;2023-06-14T14:49:48;25.10;53.10
19561;DHT22;9927;47.792;10.616;2023-06-14T14:52:15;25.00;51.10
19561;DHT22;9927;47.792;10.616;2023-06-14T14:54:50;25.20;50.90
19561;DHT22;9927;47.792;10.616;2023-06-14T14:57:18;25.10;49.30
19561;DHT22;9927;47.792;10.616;2023-06-14T14:59:45;25.00;50.70
19561;DHT22;9927;47.792;10.616;2023-06-14T15:02:13;25.10;50.40
19561;DHT22;9927;47.792;10.616;2023-06-14T15:04:40;25.00;48.20
19561;DHT22;9927;47.792;10.616;2023-06-14T15:07:07;25.10;48.50
19561;DHT22;9927;47.792;10.616;2023-06-14T15:09:35;25.30;49.20
19561;DHT22;9927;47.792;10.616;2023-06-14T15:12:02;25.60;50.10
19561;DHT22;9927;47.792;10.616;2023-06-14T15:14:29;25.70;51.10
19561;DHT22;9927;47.792;10.616;2023-06-14T15:16:57;25.70;51.70
19561;DHT22;9927;47.792;10.616;2023-06-14T15:19:26;25.70;51.50
19561;DHT22;9927;47.792;10.616;2023-06-14T15:21:54;25.50;50.40
19561;DHT22;9927;47.792;10.616;2023-06-14T15:24:22;25.20;49.50
19561;DHT22;9927;47.792;10.616;2023-06-14T15:27:08;25.00;51.50
19561;DHT22;9927;47.792;10.616;2023-06-14T15:29:35;24.90;51.30
19561;DHT22;9927;47.792;10.616;2023-06-14T15:32:02;25.00;52.80
19561;DHT22;9927;47.792;10.616;2023-06-14T15:34:30;25.10;50.10
19561;DHT22;9927;47.792;10.616;2023-06-14T15:36:57;25.20;49.20
19561;DHT22;9927;47.792;10.616;2023-06-14T15:39:24;25.30;48.80
19561;DHT22;9927;47.792;10.616;2023-06-14T15:41:53;25.20;49.80
19561;DHT22;9927;47.792;10.616;2023-06-14T15:44:21;25.20;50.20
19561;DHT22;9927;47.792;10.616;2023-06-14T15:46:48;25.00;49.70
19561;DHT22;9927;47.792;10.616;2023-06-14T15:49:18;24.90;51.50
19561;DHT22;9927;47.792;10.616;2023-06-14T15:54:13;24.50;50.10
19561;DHT22;9927;47.792;10.616;2023-06-14T15:56:41;24.60;50.10
19561;DHT22;9927;47.792;10.616;2023-06-14T15:59:08;24.80;50.90
19561;DHT22;9927;47.792;10.616;2023-06-14T16:01:35;24.80;50.30
19561;DHT22;9927;47.792;10.616;2023-06-14T16:04:03;24.50;48.60